AUA737W LOWW-LYPG
Flight info
| Callsign | AUA737W |
|---|---|
| Flight time | 0h 59m |
| Altitude | 35000 |
| Route | ARSIN DCT NALOX DCT OSDUK DCT OSLUD DCT MOJ |
| Aircraft | A320/M-SDE3FGHIRWY/LB1 |
Departure
| Time | 2026-04-21 20:27 |
|---|---|
| Airport | Vienna International Airport (LOWW) |
Arrival
| Time | 2026-04-21 21:26 |
|---|---|
| Airport | Podgorica Airport / Podgorica Golubovci Airbase (LYPG) |
| Time | Latitude | Longitude | Altitude | Speed | Heading |
|---|---|---|---|---|---|
| 2026-04-21 20:01 | 48.11637 | 16.57046 | 622 ft | 0 kts | 26° |
| 2026-04-21 20:23 | 48.11647 | 16.57054 | 621 ft | 5 kts | 26° |
| 2026-04-21 20:24 | 48.11684 | 16.57114 | 620 ft | 9 kts | 91° |
| 2026-04-21 20:24 | 48.11658 | 16.57208 | 621 ft | 12 kts | 115° |
| 2026-04-21 20:24 | 48.11615 | 16.57341 | 621 ft | 17 kts | 116° |
| 2026-04-21 20:24 | 48.11541 | 16.57457 | 610 ft | 15 kts | 162° |
| 2026-04-21 20:25 | 48.11447 | 16.57428 | 623 ft | 13 kts | 206° |
| 2026-04-21 20:25 | 48.11348 | 16.57356 | 612 ft | 19 kts | 206° |
| 2026-04-21 20:25 | 48.11229 | 16.57270 | 621 ft | 19 kts | 206° |
| 2026-04-21 20:25 | 48.11107 | 16.57179 | 614 ft | 19 kts | 206° |
| 2026-04-21 20:26 | 48.11059 | 16.57095 | 612 ft | 10 kts | 281° |
| 2026-04-21 20:26 | 48.11085 | 16.57011 | 622 ft | 8 kts | 296° |
| 2026-04-21 20:26 | 48.11128 | 16.56879 | 617 ft | 34 kts | 296° |
| 2026-04-21 20:26 | 48.11337 | 16.56235 | 615 ft | 102 kts | 296° |
| 2026-04-21 20:27 | 48.11733 | 16.55018 | 624 ft | 155 kts | 296° |
| 2026-04-21 20:27 | 48.12147 | 16.53519 | 1184 ft | 160 kts | 280° |
| 2026-04-21 20:27 | 48.11883 | 16.51773 | 1511 ft | 191 kts | 237° |
| 2026-04-21 20:27 | 48.10748 | 16.50575 | 1873 ft | 215 kts | 200° |
| 2026-04-21 20:28 | 48.09278 | 16.49875 | 2434 ft | 225 kts | 195° |
| 2026-04-21 20:28 | 48.07750 | 16.49253 | 3203 ft | 229 kts | 193° |
| 2026-04-21 20:28 | 48.06207 | 16.48638 | 4050 ft | 230 kts | 195° |
| 2026-04-21 20:28 | 48.04735 | 16.47611 | 4718 ft | 244 kts | 211° |
| 2026-04-21 20:29 | 48.03176 | 16.46333 | 5147 ft | 267 kts | 198° |
| 2026-04-21 20:29 | 48.01304 | 16.46087 | 5793 ft | 276 kts | 167° |
| 2026-04-21 20:29 | 47.99497 | 16.47062 | 6676 ft | 278 kts | 154° |
| 2026-04-21 20:29 | 47.97722 | 16.48244 | 7564 ft | 281 kts | 154° |
| 2026-04-21 20:30 | 47.95926 | 16.49453 | 8426 ft | 285 kts | 154° |
| 2026-04-21 20:30 | 47.94105 | 16.50676 | 9295 ft | 289 kts | 154° |
| 2026-04-21 20:30 | 47.92253 | 16.51914 | 10149 ft | 294 kts | 154° |
| 2026-04-21 20:30 | 47.90341 | 16.53190 | 10622 ft | 312 kts | 155° |
| 2026-04-21 20:31 | 47.88284 | 16.54566 | 10882 ft | 335 kts | 155° |
| 2026-04-21 20:31 | 47.86096 | 16.56028 | 11222 ft | 352 kts | 155° |
| 2026-04-21 20:31 | 47.83834 | 16.57530 | 11876 ft | 359 kts | 155° |
| 2026-04-21 20:31 | 47.81532 | 16.59050 | 12603 ft | 364 kts | 156° |
| 2026-04-21 20:32 | 47.79204 | 16.60583 | 13326 ft | 368 kts | 156° |
| 2026-04-21 20:32 | 47.76876 | 16.62114 | 14028 ft | 372 kts | 156° |
| 2026-04-21 20:32 | 47.74496 | 16.63681 | 14682 ft | 376 kts | 156° |
| 2026-04-21 20:32 | 47.72094 | 16.65262 | 15323 ft | 379 kts | 156° |
| 2026-04-21 20:33 | 47.69668 | 16.66860 | 15973 ft | 383 kts | 156° |
| 2026-04-21 20:33 | 47.67223 | 16.68470 | 16608 ft | 386 kts | 156° |
| 2026-04-21 20:33 | 47.64754 | 16.70092 | 17236 ft | 390 kts | 157° |
| 2026-04-21 20:33 | 47.62254 | 16.71730 | 17868 ft | 394 kts | 157° |
| 2026-04-21 20:34 | 47.59731 | 16.73383 | 18455 ft | 399 kts | 157° |
| 2026-04-21 20:34 | 47.57124 | 16.74812 | 18985 ft | 401 kts | 166° |
| 2026-04-21 20:34 | 47.54376 | 16.75588 | 19537 ft | 402 kts | 176° |
| 2026-04-21 20:34 | 47.51576 | 16.75865 | 20100 ft | 405 kts | 179° |
| 2026-04-21 20:35 | 47.48753 | 16.76128 | 20663 ft | 408 kts | 178° |
| 2026-04-21 20:35 | 47.45912 | 16.76402 | 21202 ft | 410 kts | 178° |
| 2026-04-21 20:35 | 47.43050 | 16.76682 | 21746 ft | 413 kts | 178° |
| 2026-04-21 20:35 | 47.40174 | 16.76958 | 22260 ft | 416 kts | 179° |
| 2026-04-21 20:36 | 47.37276 | 16.77234 | 22772 ft | 419 kts | 179° |
| 2026-04-21 20:36 | 47.34358 | 16.77509 | 23260 ft | 421 kts | 179° |
| 2026-04-21 20:36 | 47.31415 | 16.77789 | 23733 ft | 424 kts | 179° |
| 2026-04-21 20:36 | 47.28500 | 16.78067 | 24113 ft | 427 kts | 179° |
| 2026-04-21 20:37 | 47.25484 | 16.78357 | 24478 ft | 430 kts | 179° |
| 2026-04-21 20:37 | 47.22527 | 16.78640 | 24836 ft | 433 kts | 179° |
| 2026-04-21 20:37 | 47.19508 | 16.78926 | 25190 ft | 435 kts | 179° |
| 2026-04-21 20:37 | 47.16475 | 16.79208 | 25536 ft | 438 kts | 179° |
| 2026-04-21 20:38 | 47.13424 | 16.79494 | 25880 ft | 441 kts | 179° |
| 2026-04-21 20:38 | 47.10354 | 16.79787 | 26216 ft | 443 kts | 179° |
| 2026-04-21 20:38 | 47.07265 | 16.80084 | 26552 ft | 446 kts | 179° |
| 2026-04-21 20:38 | 47.04157 | 16.80380 | 26879 ft | 448 kts | 179° |
| 2026-04-21 20:39 | 47.01038 | 16.80675 | 27212 ft | 451 kts | 179° |
| 2026-04-21 20:39 | 46.97899 | 16.80970 | 27528 ft | 453 kts | 179° |
| 2026-04-21 20:39 | 46.94744 | 16.81265 | 27836 ft | 455 kts | 179° |
| 2026-04-21 20:39 | 46.91575 | 16.81722 | 28134 ft | 460 kts | 173° |
| 2026-04-21 20:40 | 46.88453 | 16.82871 | 28422 ft | 466 kts | 163° |
| 2026-04-21 20:40 | 46.85468 | 16.84755 | 28698 ft | 471 kts | 153° |
| 2026-04-21 20:40 | 46.82698 | 16.87352 | 28963 ft | 476 kts | 143° |
| 2026-04-21 20:40 | 46.80154 | 16.90480 | 29229 ft | 478 kts | 140° |
| 2026-04-21 20:41 | 46.77659 | 16.93605 | 29480 ft | 480 kts | 141° |
| 2026-04-21 20:41 | 46.75114 | 16.96773 | 29723 ft | 482 kts | 141° |
| 2026-04-21 20:41 | 46.72522 | 16.99977 | 30035 ft | 482 kts | 141° |
| 2026-04-21 20:41 | 46.69959 | 17.03136 | 30357 ft | 482 kts | 141° |
| 2026-04-21 20:42 | 46.67400 | 17.06284 | 30625 ft | 482 kts | 141° |
| 2026-04-21 20:42 | 46.64842 | 17.09429 | 30887 ft | 482 kts | 141° |
| 2026-04-21 20:42 | 46.62317 | 17.12541 | 31133 ft | 482 kts | 141° |
| 2026-04-21 20:42 | 46.59758 | 17.15697 | 31396 ft | 483 kts | 141° |
| 2026-04-21 20:43 | 46.57192 | 17.18852 | 31653 ft | 483 kts | 141° |
| 2026-04-21 20:43 | 46.54628 | 17.22000 | 31911 ft | 483 kts | 141° |
| 2026-04-21 20:43 | 46.52051 | 17.25156 | 32169 ft | 484 kts | 142° |
| 2026-04-21 20:43 | 46.49477 | 17.28309 | 32435 ft | 484 kts | 142° |
| 2026-04-21 20:44 | 46.46902 | 17.31461 | 32698 ft | 485 kts | 142° |
| 2026-04-21 20:44 | 46.44322 | 17.34613 | 32962 ft | 485 kts | 142° |
| 2026-04-21 20:44 | 46.41742 | 17.37762 | 33229 ft | 485 kts | 142° |
| 2026-04-21 20:44 | 46.39154 | 17.40913 | 33484 ft | 486 kts | 142° |
| 2026-04-21 20:45 | 46.37438 | 17.42998 | 33657 ft | 486 kts | 142° |
| 2026-04-21 20:45 | 46.33964 | 17.47210 | 34005 ft | 487 kts | 142° |
| 2026-04-21 20:45 | 46.31368 | 17.50354 | 34245 ft | 487 kts | 142° |
| 2026-04-21 20:45 | 46.28762 | 17.53513 | 34464 ft | 488 kts | 142° |
| 2026-04-21 20:46 | 46.26163 | 17.56664 | 34694 ft | 488 kts | 142° |
| 2026-04-21 20:46 | 46.23561 | 17.59812 | 34922 ft | 488 kts | 142° |
| 2026-04-21 20:46 | 46.20959 | 17.62957 | 35078 ft | 488 kts | 142° |
| 2026-04-21 20:46 | 46.18347 | 17.66109 | 35130 ft | 489 kts | 143° |
| 2026-04-21 20:47 | 46.13119 | 17.72393 | 35132 ft | 489 kts | 143° |
| 2026-04-21 20:47 | 46.07890 | 17.78673 | 35126 ft | 490 kts | 143° |
| 2026-04-21 20:48 | 46.02653 | 17.84957 | 35120 ft | 490 kts | 143° |
| 2026-04-21 20:48 | 45.97404 | 17.91221 | 35116 ft | 490 kts | 143° |
| 2026-04-21 20:49 | 45.92150 | 17.97474 | 35108 ft | 490 kts | 143° |
| 2026-04-21 20:49 | 45.86920 | 18.03681 | 35102 ft | 491 kts | 143° |
| 2026-04-21 20:50 | 45.81605 | 18.09818 | 35097 ft | 488 kts | 149° |
| 2026-04-21 20:50 | 45.75595 | 18.14079 | 35095 ft | 478 kts | 167° |
| 2026-04-21 20:51 | 45.69165 | 18.16187 | 35090 ft | 473 kts | 174° |
| 2026-04-21 20:51 | 45.62704 | 18.18075 | 35095 ft | 474 kts | 174° |
| 2026-04-21 20:52 | 45.56236 | 18.19959 | 35092 ft | 474 kts | 174° |
| 2026-04-21 20:52 | 45.49814 | 18.21838 | 35093 ft | 474 kts | 174° |
| 2026-04-21 20:53 | 45.43351 | 18.23727 | 35094 ft | 474 kts | 174° |
| 2026-04-21 20:53 | 45.36880 | 18.25609 | 35092 ft | 474 kts | 174° |
| 2026-04-21 20:54 | 45.30412 | 18.27482 | 35093 ft | 474 kts | 174° |
| 2026-04-21 20:54 | 45.23939 | 18.29356 | 35095 ft | 474 kts | 174° |
| 2026-04-21 20:55 | 45.17469 | 18.31223 | 35095 ft | 474 kts | 175° |
| 2026-04-21 20:55 | 45.10999 | 18.33086 | 35092 ft | 474 kts | 175° |
| 2026-04-21 20:56 | 45.04527 | 18.34947 | 35090 ft | 474 kts | 175° |
| 2026-04-21 20:56 | 44.98102 | 18.36789 | 35088 ft | 474 kts | 175° |
| 2026-04-21 20:57 | 44.91628 | 18.38631 | 35086 ft | 474 kts | 175° |
| 2026-04-21 20:57 | 44.85149 | 18.40480 | 35083 ft | 475 kts | 175° |
| 2026-04-21 20:58 | 44.78672 | 18.42333 | 35082 ft | 475 kts | 175° |
| 2026-04-21 20:58 | 44.72192 | 18.44169 | 35081 ft | 475 kts | 176° |
| 2026-04-21 20:59 | 44.65703 | 18.46005 | 35076 ft | 476 kts | 176° |
| 2026-04-21 20:59 | 44.59207 | 18.47837 | 35073 ft | 476 kts | 176° |
| 2026-04-21 21:00 | 44.53805 | 18.49350 | 35080 ft | 477 kts | 176° |
| 2026-04-21 21:00 | 44.47290 | 18.51187 | 35075 ft | 478 kts | 176° |
| 2026-04-21 21:01 | 44.39712 | 18.53333 | 35080 ft | 478 kts | 176° |
| 2026-04-21 21:01 | 44.34243 | 18.54863 | 35075 ft | 478 kts | 177° |
| 2026-04-21 21:02 | 44.27763 | 18.56663 | 35071 ft | 479 kts | 177° |
| 2026-04-21 21:02 | 44.21257 | 18.58470 | 35066 ft | 479 kts | 177° |
| 2026-04-21 21:03 | 44.14708 | 18.60295 | 35058 ft | 480 kts | 176° |
| 2026-04-21 21:03 | 44.08151 | 18.62131 | 35061 ft | 480 kts | 176° |
| 2026-04-21 21:04 | 44.01598 | 18.63956 | 35058 ft | 480 kts | 177° |
| 2026-04-21 21:04 | 43.95081 | 18.65753 | 35060 ft | 480 kts | 176° |
| 2026-04-21 21:05 | 43.88531 | 18.67558 | 35059 ft | 479 kts | 176° |
| 2026-04-21 21:05 | 43.81990 | 18.69356 | 35066 ft | 479 kts | 176° |
| 2026-04-21 21:06 | 43.75452 | 18.71146 | 35069 ft | 478 kts | 176° |
| 2026-04-21 21:06 | 43.68924 | 18.72931 | 35065 ft | 478 kts | 176° |
| 2026-04-21 21:07 | 43.62403 | 18.74719 | 35065 ft | 477 kts | 176° |
| 2026-04-21 21:07 | 43.55933 | 18.76477 | 35058 ft | 476 kts | 176° |
| 2026-04-21 21:08 | 43.49547 | 18.79104 | 35066 ft | 489 kts | 160° |
| 2026-04-21 21:08 | 43.46572 | 18.81436 | 34728 ft | 496 kts | 151° |
| 2026-04-21 21:08 | 43.43841 | 18.84462 | 33565 ft | 512 kts | 140° |
| 2026-04-21 21:09 | 43.41402 | 18.88106 | 32300 ft | 521 kts | 136° |
| 2026-04-21 21:09 | 43.38961 | 18.91835 | 31073 ft | 527 kts | 136° |
| 2026-04-21 21:09 | 43.36485 | 18.95583 | 29807 ft | 532 kts | 137° |
| 2026-04-21 21:09 | 43.34004 | 18.99290 | 28434 ft | 534 kts | 137° |
| 2026-04-21 21:10 | 43.31496 | 19.03011 | 27414 ft | 528 kts | 137° |
| 2026-04-21 21:10 | 43.29008 | 19.06691 | 26405 ft | 523 kts | 137° |
| 2026-04-21 21:10 | 43.26547 | 19.10331 | 25567 ft | 516 kts | 137° |
| 2026-04-21 21:10 | 43.24123 | 19.13922 | 24775 ft | 509 kts | 137° |
| 2026-04-21 21:11 | 43.21739 | 19.17456 | 24048 ft | 501 kts | 137° |
| 2026-04-21 21:11 | 43.19386 | 19.20939 | 23362 ft | 493 kts | 137° |
| 2026-04-21 21:11 | 43.17095 | 19.24333 | 23078 ft | 476 kts | 137° |
| 2026-04-21 21:11 | 43.14872 | 19.27623 | 22732 ft | 466 kts | 137° |
| 2026-04-21 21:12 | 43.12654 | 19.30894 | 21456 ft | 473 kts | 137° |
| 2026-04-21 21:12 | 43.10410 | 19.34183 | 20666 ft | 471 kts | 137° |
| 2026-04-21 21:12 | 43.08183 | 19.37443 | 19939 ft | 465 kts | 136° |
| 2026-04-21 21:12 | 43.06018 | 19.40622 | 19318 ft | 460 kts | 136° |
| 2026-04-21 21:13 | 43.03826 | 19.43841 | 18702 ft | 454 kts | 136° |
| 2026-04-21 21:13 | 43.01680 | 19.46985 | 18064 ft | 449 kts | 136° |
| 2026-04-21 21:13 | 42.99556 | 19.50075 | 17422 ft | 443 kts | 138° |
| 2026-04-21 21:13 | 42.97167 | 19.52635 | 16687 ft | 432 kts | 154° |
| 2026-04-21 21:14 | 42.94472 | 19.54147 | 16086 ft | 419 kts | 170° |
| 2026-04-21 21:14 | 42.91634 | 19.54638 | 15482 ft | 406 kts | 185° |
| 2026-04-21 21:14 | 42.88911 | 19.54160 | 14921 ft | 395 kts | 198° |
| 2026-04-21 21:14 | 42.86370 | 19.52882 | 14343 ft | 387 kts | 206° |
| 2026-04-21 21:15 | 42.83895 | 19.51448 | 13491 ft | 389 kts | 206° |
| 2026-04-21 21:15 | 42.81392 | 19.49998 | 12562 ft | 391 kts | 205° |
| 2026-04-21 21:15 | 42.78886 | 19.48550 | 11733 ft | 391 kts | 205° |
| 2026-04-21 21:15 | 42.76381 | 19.47105 | 10948 ft | 390 kts | 205° |
| 2026-04-21 21:16 | 42.73880 | 19.45660 | 10640 ft | 391 kts | 204° |
| 2026-04-21 21:16 | 42.71370 | 19.44208 | 10479 ft | 393 kts | 204° |
| 2026-04-21 21:16 | 42.68871 | 19.42766 | 10310 ft | 382 kts | 204° |
| 2026-04-21 21:16 | 42.66478 | 19.41388 | 10024 ft | 367 kts | 204° |
| 2026-04-21 21:17 | 42.64165 | 19.40061 | 9635 ft | 356 kts | 204° |
| 2026-04-21 21:17 | 42.61912 | 19.38773 | 9236 ft | 346 kts | 204° |
| 2026-04-21 21:17 | 42.59718 | 19.37524 | 8840 ft | 337 kts | 204° |
| 2026-04-21 21:17 | 42.57579 | 19.36303 | 8448 ft | 330 kts | 204° |
| 2026-04-21 21:18 | 42.55509 | 19.35120 | 8054 ft | 313 kts | 204° |
| 2026-04-21 21:18 | 42.53587 | 19.34025 | 7680 ft | 295 kts | 204° |
| 2026-04-21 21:18 | 42.51719 | 19.32957 | 7294 ft | 280 kts | 204° |
| 2026-04-21 21:18 | 42.49984 | 19.31964 | 6930 ft | 268 kts | 203° |
| 2026-04-21 21:19 | 42.48303 | 19.31002 | 6561 ft | 257 kts | 203° |
| 2026-04-21 21:19 | 42.46685 | 19.30072 | 6248 ft | 250 kts | 202° |
| 2026-04-21 21:19 | 42.45096 | 19.29159 | 5943 ft | 247 kts | 202° |
| 2026-04-21 21:19 | 42.43516 | 19.28255 | 5629 ft | 246 kts | 202° |
| 2026-04-21 21:20 | 42.41969 | 19.27373 | 5327 ft | 244 kts | 202° |
| 2026-04-21 21:20 | 42.40412 | 19.26487 | 5020 ft | 242 kts | 202° |
| 2026-04-21 21:20 | 42.38807 | 19.25845 | 4717 ft | 240 kts | 185° |
| 2026-04-21 21:20 | 42.37160 | 19.25966 | 4412 ft | 237 kts | 165° |
| 2026-04-21 21:21 | 42.35563 | 19.26528 | 4097 ft | 236 kts | 164° |
| 2026-04-21 21:21 | 42.33977 | 19.27095 | 3793 ft | 235 kts | 163° |
| 2026-04-21 21:21 | 42.32401 | 19.27658 | 3491 ft | 233 kts | 164° |
| 2026-04-21 21:21 | 42.30843 | 19.28211 | 3194 ft | 229 kts | 164° |
| 2026-04-21 21:22 | 42.29328 | 19.28749 | 2937 ft | 220 kts | 164° |
| 2026-04-21 21:22 | 42.27883 | 19.29260 | 2678 ft | 214 kts | 164° |
| 2026-04-21 21:22 | 42.26465 | 19.29762 | 2426 ft | 208 kts | 164° |
| 2026-04-21 21:22 | 42.25063 | 19.30112 | 2195 ft | 204 kts | 183° |
| 2026-04-21 21:23 | 42.23764 | 19.29474 | 1983 ft | 200 kts | 220° |
| 2026-04-21 21:23 | 42.23007 | 19.27960 | 1781 ft | 195 kts | 256° |
| 2026-04-21 21:23 | 42.23027 | 19.26174 | 1569 ft | 191 kts | 291° |
| 2026-04-21 21:23 | 42.23773 | 19.24752 | 1440 ft | 186 kts | 324° |
| 2026-04-21 21:24 | 42.24959 | 19.24114 | 1355 ft | 184 kts | 355° |
| 2026-04-21 21:24 | 42.26231 | 19.24192 | 1255 ft | 182 kts | 4° |
| 2026-04-21 21:24 | 42.27494 | 19.24326 | 1177 ft | 181 kts | 4° |
| 2026-04-21 21:24 | 42.28752 | 19.24456 | 1179 ft | 182 kts | 4° |
| 2026-04-21 21:25 | 42.29992 | 19.24583 | 1094 ft | 174 kts | 3° |
| 2026-04-21 21:25 | 42.31157 | 19.24702 | 886 ft | 162 kts | 3° |
| 2026-04-21 21:25 | 42.32242 | 19.24812 | 694 ft | 149 kts | 3° |
| 2026-04-21 21:25 | 42.33240 | 19.24913 | 479 ft | 140 kts | 3° |
| 2026-04-21 21:26 | 42.34196 | 19.25004 | 284 ft | 137 kts | 4° |
| 2026-04-21 21:26 | 42.35137 | 19.25102 | 120 ft | 134 kts | 5° |
| 2026-04-21 21:26 | 42.35938 | 19.25186 | 104 ft | 92 kts | 4° |
| 2026-04-21 21:26 | 42.36405 | 19.25233 | 111 ft | 48 kts | 4° |
| 2026-04-21 21:27 | 42.36580 | 19.25242 | 112 ft | 18 kts | 348° |
| 2026-04-21 21:27 | 42.36622 | 19.25131 | 111 ft | 14 kts | 276° |
| 2026-04-21 21:27 | 42.36630 | 19.25012 | 110 ft | 8 kts | 274° |
| 2026-04-21 21:27 | 42.36634 | 19.24935 | 108 ft | 9 kts | 274° |
| 2026-04-21 21:28 | 42.36640 | 19.24853 | 105 ft | 4 kts | 279° |
| 2026-04-21 21:28 | 42.36661 | 19.24830 | 106 ft | 5 kts | 334° |
| 2026-04-21 21:28 | 42.36790 | 19.24839 | 106 ft | 12 kts | 4° |
| 2026-04-21 21:29 | 42.36847 | 19.24825 | 105 ft | 6 kts | 299° |
| 2026-04-21 21:29 | 42.36852 | 19.24776 | 106 ft | 4 kts | 273° |
| 2026-04-21 21:29 | 42.36858 | 19.24759 | 104 ft | 1 kts | 316° |
| 2026-04-21 21:30 | 42.36860 | 19.24757 | 104 ft | 0 kts | 316° |